首页
METAR-TAF:

METAR-TAF

机场 :

菲利普戈尔德森国际机场

伯利兹, 伯利兹

纬度: 17-32N, 经度: 088-18W, 海拔: 5米

当前天气观测

该预报发布于7小时和6分钟前的00:00 UTC
风速7节,风向东转东南
温度 30°C
湿度 79%
气压 1007 hPa
能见度10公里或以上
散云层高于1800英尺

METAR: MZBZ 190000Z 11007KT 9999 SCT018 30/26 A2976 Q1007 NOSIG RMK HZY

时间: 01:06 (07:06 UTC)

预报

该预报发布于4小时和6分钟前的03:00 UTC
预报有效从19日的 06点(UTC)到 20日的 06点(UTC)
风速9节,风向
能见度10公里或以上
散云层高于2300英尺

TAF: MZBZ 190300Z 1906/2006 09009KT 9999 SCT023

超过4000个机场的气象观测和天气预报(METAR&TAF报告)。

可查询的气象台以黄色和红色小点在地图上表示。

将鼠标移到小点上方,可查看气象台名称。

然后点击查看天气观测和预报。

如需切换地图:点击带黑十字的绿色按钮放大地图;点击带横线的绿色按钮缩小地图;或者点击绿色箭头查看邻近地区的地图。


METAR-TAF: